createdAt,value
2022-09-17T00:04:07.598Z,83.14
2022-09-17T00:09:09.590Z,82.66
2022-09-17T00:14:17.698Z,80.92
2022-09-17T00:19:22.165Z,82.79
2022-09-17T00:24:23.689Z,82.26
2022-09-17T00:29:25.099Z,82.30
2022-09-17T00:34:26.738Z,83.23
2022-09-17T00:39:28.271Z,83.51
2022-09-17T00:45:06.407Z,83.25
2022-09-17T00:50:13.748Z,82.37
2022-09-17T00:55:17.830Z,80.50
2022-09-17T01:00:19.558Z,81.31
2022-09-17T01:05:44.618Z,83.11
2022-09-17T01:11:15.170Z,83.59
2022-09-17T01:16:52.231Z,82.49
2022-09-17T01:22:13.966Z,82.71
2022-09-17T01:27:22.634Z,81.64
2022-09-17T01:32:35.491Z,81.69
2022-09-17T01:38:00.093Z,81.33
2022-09-17T01:43:11.863Z,80.78
2022-09-17T01:48:17.544Z,80.95
2022-09-17T01:53:25.719Z,81.31
2022-09-17T01:58:32.775Z,80.86
2022-09-17T02:03:48.336Z,81.97
2022-09-17T02:09:05.939Z,82.30
2022-09-17T02:14:13.750Z,81.25
2022-09-17T02:19:23.319Z,82.11
2022-09-17T02:24:38.940Z,81.22
2022-09-17T02:29:44.711Z,81.28
2022-09-17T02:34:46.490Z,80.27
2022-09-17T02:39:48.156Z,84.11
2022-09-17T02:45:30.012Z,83.15
2022-09-17T02:50:52.900Z,81.97
2022-09-17T02:56:13.440Z,84.68
2022-09-17T03:01:25.541Z,82.78
2022-09-17T03:06:27.336Z,81.49
2022-09-17T03:11:28.741Z,80.87
2022-09-17T03:16:30.441Z,82.71
2022-09-17T03:21:31.941Z,83.32
2022-09-17T03:26:33.344Z,82.70
2022-09-17T03:31:34.938Z,81.56
2022-09-17T03:36:36.447Z,83.11
2022-09-17T03:41:37.844Z,80.65
2022-09-17T03:46:39.266Z,81.21
2022-09-17T03:51:40.948Z,82.05
2022-09-17T03:56:42.362Z,79.69
2022-09-17T04:01:43.967Z,82.51
2022-09-17T04:06:45.568Z,81.80
2022-09-17T04:11:46.978Z,84.13
2022-09-17T04:16:48.385Z,84.87
2022-09-17T04:21:49.873Z,87.78
2022-09-17T04:26:51.336Z,85.06
2022-09-17T04:31:52.914Z,83.27
2022-09-17T04:36:54.401Z,83.88
2022-09-17T04:41:55.818Z,84.33
2022-09-17T04:46:57.399Z,83.50
2022-09-17T04:51:58.933Z,85.24
2022-09-17T04:57:00.817Z,85.86
2022-09-17T05:02:02.259Z,87.00
2022-09-17T05:07:03.970Z,87.63
2022-09-17T05:12:05.589Z,87.61
2022-09-17T05:17:07.177Z,86.50
2022-09-17T05:22:08.669Z,87.94
2022-09-17T05:27:10.221Z,89.64
2022-09-17T05:32:12.566Z,88.81
2022-09-17T05:37:14.089Z,89.16
2022-09-17T05:42:15.553Z,88.58
2022-09-17T05:47:17.122Z,88.21
2022-09-17T05:52:18.694Z,89.89
2022-09-17T05:57:20.146Z,88.82
2022-09-17T06:02:21.888Z,88.60
2022-09-17T06:07:23.359Z,89.42
2022-09-17T06:12:24.789Z,90.39
2022-09-17T06:17:26.214Z,90.46
2022-09-17T06:22:27.782Z,89.97
2022-09-17T06:27:32.815Z,89.78
2022-09-17T06:32:34.334Z,89.95
2022-09-17T06:37:35.778Z,90.99
2022-09-17T06:42:37.179Z,89.90
2022-09-17T06:47:38.606Z,90.97
2022-09-17T06:52:39.988Z,89.80
2022-09-17T06:57:41.795Z,89.63
2022-09-17T07:02:43.195Z,89.64
2022-09-17T07:07:44.582Z,89.48
2022-09-17T07:12:49.829Z,90.34
2022-09-17T07:17:51.519Z,89.32
2022-09-17T07:22:58.766Z,87.09
2022-09-17T07:28:02.525Z,88.27
2022-09-17T07:33:03.915Z,85.61
2022-09-17T07:38:05.325Z,83.19
2022-09-17T07:43:06.714Z,83.64
2022-09-17T07:48:08.099Z,84.49
2022-09-17T07:53:09.497Z,84.03
2022-09-17T07:58:10.952Z,82.60
2022-09-17T08:03:12.419Z,79.50
2022-09-17T08:08:16.608Z,79.52
2022-09-17T08:13:21.822Z,77.04
2022-09-17T08:18:23.274Z,84.91
2022-09-17T08:23:25.892Z,81.47
2022-09-17T08:28:30.043Z,82.02
2022-09-17T08:33:33.553Z,79.77
2022-09-17T08:38:38.260Z,77.89
2022-09-17T08:44:13.942Z,77.43
2022-09-17T08:49:43.221Z,75.67
2022-09-17T08:55:04.190Z,74.55
2022-09-17T09:00:18.770Z,74.69
2022-09-17T09:05:26.534Z,70.29
2022-09-17T09:10:32.418Z,68.87
2022-09-17T09:15:42.735Z,68.71
2022-09-17T09:20:52.374Z,71.36
2022-09-17T09:26:13.538Z,69.39
2022-09-17T09:31:41.625Z,68.08
2022-09-17T09:36:43.232Z,69.37
2022-09-17T09:41:51.450Z,68.91
2022-09-17T09:47:34.620Z,67.57
2022-09-17T09:52:47.889Z,64.85
2022-09-17T09:58:29.414Z,66.77
2022-09-17T10:03:33.025Z,65.07
2022-09-17T10:08:39.926Z,64.79
2022-09-17T10:13:41.381Z,63.05
2022-09-17T10:18:43.578Z,60.03
2022-09-17T10:23:45.848Z,60.85
2022-09-17T10:28:56.027Z,62.47
2022-09-17T10:34:04.450Z,61.93
2022-09-17T10:39:41.157Z,62.57
2022-09-17T10:44:56.789Z,62.22
2022-09-17T10:50:18.058Z,61.53
2022-09-17T10:55:33.473Z,62.83
2022-09-17T11:00:34.956Z,60.89
2022-09-17T11:05:55.461Z,63.38
2022-09-17T11:10:56.868Z,60.27
2022-09-17T11:16:21.972Z,61.52
2022-09-17T11:21:38.075Z,60.36
2022-09-17T11:26:41.614Z,59.72
2022-09-17T11:32:20.929Z,57.65
2022-09-17T11:37:37.627Z,61.03
2022-09-17T11:42:47.160Z,59.36
2022-09-17T11:48:00.323Z,56.81
2022-09-17T11:53:10.576Z,57.41
2022-09-17T11:58:24.129Z,56.99
2022-09-17T12:03:55.397Z,56.55
2022-09-17T12:09:09.611Z,59.14
2022-09-17T12:14:17.979Z,58.82
2022-09-17T12:19:41.259Z,57.96
2022-09-17T12:24:42.847Z,59.91
2022-09-17T12:30:10.671Z,66.79
2022-09-17T12:36:07.263Z,73.20
2022-09-17T12:41:11.647Z,69.66
2022-09-17T12:46:25.156Z,75.75
2022-09-17T12:51:48.531Z,73.82
2022-09-17T12:57:19.573Z,79.19
2022-09-17T13:02:35.453Z,79.20
2022-09-17T13:08:11.019Z,84.75
2022-09-17T13:13:43.327Z,91.40
2022-09-17T13:19:16.574Z,84.87
2022-09-17T13:24:27.155Z,87.56
2022-09-17T13:29:43.756Z,83.95
2022-09-17T13:34:45.380Z,86.54
2022-09-17T13:39:50.170Z,88.32
2022-09-17T13:45:02.274Z,87.00
2022-09-17T13:50:11.891Z,84.95
2022-09-17T13:55:32.972Z,89.86
2022-09-17T14:01:00.192Z,90.21
2022-09-17T14:06:21.875Z,86.93
2022-09-17T14:11:23.199Z,88.95
2022-09-17T14:16:30.752Z,88.48
2022-09-17T14:21:33.809Z,84.63
2022-09-17T14:26:58.537Z,86.68
2022-09-17T14:32:00.009Z,88.54
2022-09-17T14:37:02.143Z,87.40
2022-09-17T14:42:09.785Z,85.51
2022-09-17T14:47:16.847Z,93.03
2022-09-17T14:52:26.312Z,90.53
2022-09-17T14:57:29.297Z,90.64
2022-09-17T15:02:42.248Z,91.10
2022-09-17T15:07:45.249Z,93.57
2022-09-17T15:12:48.904Z,89.61
2022-09-17T15:17:51.565Z,88.11
2022-09-17T15:23:19.172Z,86.34
2022-09-17T15:28:29.678Z,85.40
2022-09-17T15:33:33.083Z,85.75
2022-09-17T15:38:34.759Z,84.46
2022-09-17T15:43:38.712Z,84.37
2022-09-17T15:48:40.226Z,86.43
2022-09-17T15:53:51.807Z,83.24
2022-09-17T15:58:57.510Z,83.19
2022-09-17T16:03:58.837Z,86.98
2022-09-17T16:09:01.396Z,87.74
2022-09-17T16:14:02.912Z,84.22
2022-09-17T16:19:05.625Z,85.99
2022-09-17T16:24:07.125Z,85.79
2022-09-17T16:29:14.323Z,86.67
2022-09-17T16:34:15.702Z,89.24
2022-09-17T16:39:17.282Z,85.01
2022-09-17T16:44:18.754Z,87.58
2022-09-17T16:49:20.320Z,88.49
2022-09-17T16:54:21.756Z,85.19
2022-09-17T16:59:23.331Z,90.21
2022-09-17T17:04:24.897Z,90.38
2022-09-17T17:09:26.409Z,88.53
2022-09-17T17:14:27.877Z,86.72
2022-09-17T17:19:29.450Z,88.43
2022-09-17T17:24:30.889Z,90.21
2022-09-17T17:29:32.338Z,89.93
2022-09-17T17:34:33.737Z,92.36
2022-09-17T17:39:35.259Z,89.65
2022-09-17T17:44:36.783Z,88.71
2022-09-17T17:49:38.361Z,89.25
2022-09-17T17:54:39.835Z,89.76
2022-09-17T17:59:41.256Z,90.16
2022-09-17T18:04:42.744Z,89.62
2022-09-17T18:09:47.177Z,89.23
2022-09-17T18:14:48.597Z,87.88
2022-09-17T18:19:49.970Z,90.64
2022-09-17T18:24:51.440Z,88.36
2022-09-17T18:29:52.878Z,88.98
2022-09-17T18:34:54.414Z,90.63
2022-09-17T18:39:58.860Z,91.66
2022-09-17T18:45:00.835Z,90.17
2022-09-17T18:50:02.412Z,91.00
2022-09-17T18:55:04.111Z,90.62
2022-09-17T19:00:06.190Z,91.38
2022-09-17T19:05:08.211Z,91.69
2022-09-17T19:10:09.937Z,92.93
2022-09-17T19:15:11.419Z,91.98
2022-09-17T19:20:12.815Z,92.04
2022-09-17T19:25:14.417Z,92.56
2022-09-17T19:30:15.890Z,91.83
2022-09-17T19:35:17.794Z,92.71
2022-09-17T19:40:20.145Z,91.79
2022-09-17T19:45:22.688Z,93.54
2022-09-17T19:50:24.115Z,93.94
2022-09-17T19:55:25.574Z,95.47
2022-09-17T20:00:27.122Z,97.07
2022-09-17T20:05:29.063Z,94.38
2022-09-17T20:10:30.939Z,96.25
2022-09-17T20:15:36.228Z,95.61
2022-09-17T20:20:41.891Z,96.69
2022-09-17T20:25:43.388Z,98.90
2022-09-17T20:30:45.148Z,97.91
2022-09-17T20:35:46.551Z,99.04
2022-09-17T20:40:48.041Z,98.09
2022-09-17T20:45:56.202Z,98.67
2022-09-17T20:51:02.574Z,97.47
2022-09-17T20:56:12.389Z,95.55
2022-09-17T21:01:22.977Z,97.03
2022-09-17T21:06:26.764Z,97.27
2022-09-17T21:11:29.547Z,95.33
2022-09-17T21:16:31.422Z,94.60
2022-09-17T21:21:32.916Z,96.30
2022-09-17T21:26:34.807Z,94.69
2022-09-17T21:31:37.214Z,95.50
2022-09-17T21:36:40.585Z,96.14
2022-09-17T21:41:43.236Z,94.73
2022-09-17T21:46:44.879Z,94.66
2022-09-17T21:51:46.418Z,93.69
2022-09-17T21:56:47.830Z,96.29
2022-09-17T22:01:49.335Z,97.43
2022-09-17T22:06:50.821Z,97.77
2022-09-17T22:11:53.110Z,99.40
2022-09-17T22:16:56.095Z,98.58
2022-09-17T22:21:57.602Z,99.76
2022-09-17T22:26:59.055Z,99.04
2022-09-17T22:32:00.466Z,98.34
2022-09-17T22:37:01.851Z,98.07
2022-09-17T22:42:03.389Z,97.62
2022-09-17T22:47:04.915Z,96.97
2022-09-17T22:52:06.395Z,97.33
2022-09-17T22:57:07.862Z,97.81
2022-09-17T23:02:09.386Z,97.84
2022-09-17T23:07:11.071Z,97.82
2022-09-17T23:12:13.132Z,97.66
2022-09-17T23:17:14.519Z,98.20
2022-09-17T23:22:16.283Z,99.16
2022-09-17T23:27:17.791Z,97.31
2022-09-17T23:32:19.319Z,95.98
2022-09-17T23:37:20.863Z,97.08
2022-09-17T23:42:22.349Z,93.01
2022-09-17T23:47:23.809Z,97.71
2022-09-17T23:52:25.350Z,95.87
2022-09-17T23:57:28.290Z,95.64
